createdAt,value
2023-02-16T00:00:34.322Z,47.90
2023-02-16T00:03:04.737Z,47.70
2023-02-16T00:05:36.262Z,45.97
2023-02-16T00:08:06.457Z,49.85
2023-02-16T00:10:40.355Z,45.90
2023-02-16T00:13:40.829Z,51.35
2023-02-16T00:16:15.565Z,46.97
2023-02-16T00:18:45.259Z,47.15
2023-02-16T00:21:15.584Z,47.83
2023-02-16T00:23:45.189Z,47.63
2023-02-16T00:26:17.683Z,49.38
2023-02-16T00:28:51.356Z,48.40
2023-02-16T00:31:24.062Z,49.50
2023-02-16T00:33:53.482Z,50.72
2023-02-16T00:36:23.326Z,46.88
2023-02-16T00:38:53.461Z,50.90
2023-02-16T00:41:43.170Z,48.60
2023-02-16T00:44:18.197Z,49.38
2023-02-16T00:46:49.090Z,49.67
2023-02-16T00:49:20.257Z,51.25
2023-02-16T00:51:51.248Z,50.10
2023-02-16T00:54:21.972Z,48.30
2023-02-16T00:56:52.198Z,48.95
2023-02-16T00:59:24.768Z,48.05
2023-02-16T01:01:55.088Z,50.17
2023-02-16T01:04:25.472Z,51.10
2023-02-16T01:07:12.380Z,50.17
2023-02-16T01:10:01.506Z,48.47
2023-02-16T01:12:31.068Z,50.55
2023-02-16T01:15:02.015Z,50.10
2023-02-16T01:17:32.743Z,49.20
2023-02-16T01:20:02.146Z,46.85
2023-02-16T01:22:33.468Z,51.67
2023-02-16T01:25:03.723Z,51.10
2023-02-16T01:27:33.486Z,52.25
2023-02-16T01:30:04.902Z,48.00
2023-02-16T01:32:34.575Z,50.45
2023-02-16T01:35:04.758Z,49.10
2023-02-16T01:37:34.357Z,50.35
2023-02-16T01:40:08.330Z,50.45
2023-02-16T01:42:48.182Z,47.60
2023-02-16T01:45:25.527Z,45.72
2023-02-16T01:47:58.278Z,48.10
2023-02-16T01:50:31.509Z,50.00
2023-02-16T01:55:36.383Z,48.00
2023-02-16T01:58:14.872Z,46.45
2023-02-16T02:01:21.541Z,49.63
2023-02-16T02:04:10.048Z,48.95
2023-02-16T02:06:40.599Z,47.00
2023-02-16T02:09:15.903Z,47.47
2023-02-16T02:11:50.936Z,47.08
2023-02-16T02:14:25.619Z,47.58
2023-02-16T02:16:58.460Z,45.45
2023-02-16T02:19:32.863Z,48.13
2023-02-16T02:22:47.817Z,46.85
2023-02-16T02:25:41.693Z,48.45
2023-02-16T02:28:19.862Z,43.55
2023-02-16T02:30:57.046Z,46.65
2023-02-16T02:33:48.308Z,47.92
2023-02-16T02:36:29.005Z,45.90
2023-02-16T02:39:08.684Z,46.13
2023-02-16T02:42:01.824Z,45.40
2023-02-16T02:44:43.887Z,46.08
2023-02-16T02:47:14.010Z,45.08
2023-02-16T02:49:51.565Z,46.50
2023-02-16T02:52:22.912Z,44.28
2023-02-16T02:55:10.368Z,43.03
2023-02-16T02:58:03.022Z,42.80
2023-02-16T03:00:44.998Z,43.55
2023-02-16T03:03:20.152Z,44.50
2023-02-16T03:05:56.628Z,43.08
2023-02-16T03:08:30.284Z,41.67
2023-02-16T03:11:23.178Z,41.85
2023-02-16T03:13:57.536Z,43.25
2023-02-16T03:16:32.631Z,41.92
2023-02-16T03:19:21.513Z,46.72
2023-02-16T03:22:09.553Z,43.47
2023-02-16T03:24:56.882Z,43.05
2023-02-16T03:27:49.116Z,42.45
2023-02-16T03:30:20.731Z,41.40
2023-02-16T03:32:53.854Z,40.03
2023-02-16T03:35:24.316Z,43.92
2023-02-16T03:37:53.802Z,42.50
2023-02-16T03:40:29.389Z,42.53
2023-02-16T03:43:01.921Z,42.38
2023-02-16T03:45:33.114Z,41.13
2023-02-16T03:48:04.715Z,43.70
2023-02-16T03:50:34.366Z,42.10
2023-02-16T03:53:07.967Z,40.58
2023-02-16T03:55:39.189Z,42.50
2023-02-16T03:58:12.710Z,41.95
2023-02-16T04:00:42.696Z,43.03
2023-02-16T04:03:14.127Z,41.25
2023-02-16T04:05:43.932Z,39.72
2023-02-16T04:08:14.539Z,41.70
2023-02-16T04:10:44.547Z,42.03
2023-02-16T04:13:13.806Z,38.55
2023-02-16T04:15:43.108Z,42.90
2023-02-16T04:18:14.258Z,38.60
2023-02-16T04:20:44.649Z,39.13
2023-02-16T04:23:14.730Z,38.60
2023-02-16T04:25:45.722Z,44.28
2023-02-16T04:28:15.448Z,41.17
2023-02-16T04:30:45.232Z,40.67
2023-02-16T04:33:16.399Z,39.15
2023-02-16T04:35:46.199Z,41.70
2023-02-16T04:38:15.992Z,40.25
2023-02-16T04:40:45.439Z,42.63
2023-02-16T04:43:15.244Z,43.33
2023-02-16T04:45:44.948Z,39.97
2023-02-16T04:48:17.953Z,43.80
2023-02-16T04:50:47.943Z,40.17
2023-02-16T04:53:20.085Z,43.50
2023-02-16T04:55:50.568Z,41.17
2023-02-16T04:58:20.912Z,41.78
2023-02-16T05:00:51.146Z,43.33
2023-02-16T05:03:22.147Z,41.25
2023-02-16T05:05:52.242Z,40.75
2023-02-16T05:08:21.935Z,42.15
2023-02-16T05:11:08.715Z,41.65
2023-02-16T05:13:56.152Z,42.45
2023-02-16T05:16:26.951Z,40.95
2023-02-16T05:18:58.959Z,46.20
2023-02-16T05:21:35.411Z,42.83
2023-02-16T05:24:07.739Z,41.25
2023-02-16T05:26:40.616Z,42.65
2023-02-16T05:29:11.079Z,42.67
2023-02-16T05:31:42.218Z,42.47
2023-02-16T05:34:14.424Z,42.88
2023-02-16T05:36:45.508Z,42.00
2023-02-16T05:39:15.288Z,41.15
2023-02-16T05:41:44.958Z,43.42
2023-02-16T05:44:15.479Z,43.38
2023-02-16T05:46:46.539Z,42.63
2023-02-16T05:49:18.279Z,43.40
2023-02-16T05:51:48.438Z,44.58
2023-02-16T05:54:20.239Z,44.70
2023-02-16T05:56:52.568Z,44.35
2023-02-16T05:59:22.395Z,41.92
2023-02-16T06:01:52.667Z,43.97
2023-02-16T06:04:23.762Z,45.47
2023-02-16T06:06:53.834Z,45.50
2023-02-16T06:09:23.399Z,41.80
2023-02-16T06:11:56.033Z,43.50
2023-02-16T06:14:26.155Z,42.72
2023-02-16T06:16:58.871Z,42.55
2023-02-16T06:19:30.201Z,44.22
2023-02-16T06:22:00.022Z,42.97
2023-02-16T06:24:29.615Z,45.95
2023-02-16T06:27:00.184Z,46.03
2023-02-16T06:29:29.840Z,44.45
2023-02-16T06:32:00.077Z,46.72
2023-02-16T06:34:31.097Z,44.65
2023-02-16T06:37:01.046Z,43.97
2023-02-16T06:39:32.672Z,44.75
2023-02-16T06:42:02.691Z,44.90
2023-02-16T06:44:32.357Z,46.05
2023-02-16T06:47:02.105Z,42.67
2023-02-16T06:49:32.996Z,43.63
2023-02-16T06:52:02.722Z,43.75
2023-02-16T06:54:32.005Z,44.50
2023-02-16T06:57:02.299Z,42.47
2023-02-16T06:59:31.930Z,45.67
2023-02-16T07:02:01.950Z,44.95
2023-02-16T07:04:32.899Z,43.08
2023-02-16T07:07:02.508Z,45.10
2023-02-16T07:09:32.289Z,43.78
2023-02-16T07:12:02.118Z,45.88
2023-02-16T07:14:33.181Z,44.97
2023-02-16T07:17:04.548Z,42.10
2023-02-16T07:19:35.698Z,43.33
2023-02-16T07:22:06.310Z,42.70
2023-02-16T07:24:36.564Z,43.33
2023-02-16T07:27:08.692Z,45.50
2023-02-16T07:29:38.393Z,43.17
2023-02-16T07:32:08.409Z,41.20
2023-02-16T07:34:39.054Z,42.33
2023-02-16T07:37:09.122Z,44.42
2023-02-16T07:39:38.917Z,46.13
2023-02-16T07:42:09.170Z,43.15
2023-02-16T07:44:38.797Z,44.53
2023-02-16T07:47:08.537Z,43.78
2023-02-16T07:49:40.468Z,42.75
2023-02-16T07:52:10.384Z,43.50
2023-02-16T07:54:40.078Z,43.60
2023-02-16T07:57:12.381Z,44.78
2023-02-16T07:59:42.341Z,42.30
2023-02-16T08:02:17.481Z,44.95
2023-02-16T08:04:49.135Z,42.38
2023-02-16T08:07:20.370Z,42.70
2023-02-16T08:09:51.002Z,44.35
2023-02-16T08:12:22.031Z,41.92
2023-02-16T08:17:24.780Z,40.85
2023-02-16T08:19:56.507Z,43.72
2023-02-16T08:22:26.109Z,45.78
2023-02-16T08:24:59.665Z,44.53
2023-02-16T08:27:29.024Z,42.72
2023-02-16T08:29:58.776Z,46.92
2023-02-16T08:32:28.456Z,44.83
2023-02-16T08:34:59.477Z,44.03
2023-02-16T08:37:29.227Z,46.00
2023-02-16T08:40:00.889Z,46.22
2023-02-16T08:42:30.182Z,48.72
2023-02-16T08:45:01.606Z,45.63
2023-02-16T08:47:30.954Z,49.35
2023-02-16T08:50:01.573Z,46.67
2023-02-16T08:52:33.513Z,47.70
2023-02-16T08:55:03.590Z,45.90
2023-02-16T08:57:35.095Z,49.63
2023-02-16T09:00:22.522Z,49.38
2023-02-16T09:02:52.308Z,46.47
2023-02-16T09:05:22.850Z,49.67
2023-02-16T09:07:54.572Z,51.03
2023-02-16T09:10:24.870Z,50.70
2023-02-16T09:12:55.729Z,52.65
2023-02-16T09:15:25.505Z,47.08
2023-02-16T09:17:58.481Z,48.92
2023-02-16T09:20:29.309Z,49.35
2023-02-16T09:22:59.330Z,49.63
2023-02-16T09:25:28.754Z,48.70
2023-02-16T09:27:58.672Z,49.80
2023-02-16T09:30:28.605Z,48.88
2023-02-16T09:32:59.724Z,49.35
2023-02-16T09:35:30.965Z,50.67
2023-02-16T09:38:00.490Z,54.33
2023-02-16T09:40:32.255Z,51.60
2023-02-16T09:43:09.933Z,48.28
2023-02-16T09:45:44.353Z,49.95
2023-02-16T09:48:24.687Z,52.53
2023-02-16T09:51:00.013Z,51.00
2023-02-16T09:53:36.316Z,51.25
2023-02-16T09:56:17.299Z,50.20
2023-02-16T09:58:50.923Z,55.67
2023-02-16T10:01:29.434Z,52.33
2023-02-16T10:04:12.612Z,51.22
2023-02-16T10:06:58.561Z,49.97
2023-02-16T10:09:30.277Z,49.92
2023-02-16T10:12:24.500Z,51.58
2023-02-16T10:15:22.879Z,50.03
2023-02-16T10:18:07.779Z,51.92
2023-02-16T10:20:41.713Z,51.78
2023-02-16T10:23:32.770Z,51.65
2023-02-16T10:26:12.486Z,50.78
2023-02-16T10:28:48.258Z,52.95
2023-02-16T10:31:24.023Z,50.75
2023-02-16T10:34:07.176Z,51.17
2023-02-16T10:36:56.297Z,51.28
2023-02-16T10:39:36.055Z,51.95
2023-02-16T10:42:17.105Z,51.78
2023-02-16T10:44:52.768Z,54.17
2023-02-16T10:47:33.082Z,55.97
2023-02-16T10:50:02.911Z,54.28
2023-02-16T10:52:38.290Z,56.40
2023-02-16T10:55:13.056Z,52.53
2023-02-16T10:57:42.114Z,51.10
2023-02-16T11:00:17.910Z,51.25
2023-02-16T11:02:49.583Z,49.72
2023-02-16T11:05:38.423Z,48.83
2023-02-16T11:08:11.404Z,49.95
2023-02-16T11:10:49.248Z,49.75
2023-02-16T11:13:29.381Z,48.97
2023-02-16T11:16:02.937Z,49.30
2023-02-16T11:18:37.931Z,51.65
2023-02-16T11:21:09.158Z,49.95
2023-02-16T11:23:40.222Z,47.58
2023-02-16T11:26:25.174Z,52.17
2023-02-16T11:28:55.132Z,50.70
2023-02-16T11:31:31.800Z,49.97
2023-02-16T11:34:05.859Z,47.85
2023-02-16T11:36:39.474Z,48.10
2023-02-16T11:41:46.382Z,46.38
2023-02-16T11:44:27.461Z,47.00
2023-02-16T11:46:59.344Z,44.85
2023-02-16T11:49:33.597Z,48.55
2023-02-16T11:52:21.140Z,41.88
2023-02-16T11:54:52.857Z,40.25
2023-02-16T11:57:28.721Z,40.88
2023-02-16T11:59:59.555Z,43.15
2023-02-16T12:02:51.173Z,40.63
2023-02-16T12:05:28.067Z,38.33
2023-02-16T12:08:16.231Z,40.08
2023-02-16T12:11:02.843Z,38.72
2023-02-16T12:13:45.102Z,39.55
2023-02-16T12:16:26.244Z,39.08
2023-02-16T12:19:12.878Z,38.92
2023-02-16T12:21:48.514Z,37.60
2023-02-16T12:26:58.941Z,35.65
2023-02-16T12:29:54.079Z,35.05
2023-02-16T12:32:45.871Z,33.53
2023-02-16T12:35:45.034Z,32.30
2023-02-16T12:38:25.017Z,31.17
2023-02-16T12:41:06.509Z,31.60
2023-02-16T12:43:39.738Z,32.45
2023-02-16T12:46:21.444Z,31.90
2023-02-16T12:48:57.386Z,29.58
2023-02-16T12:51:31.883Z,30.05
2023-02-16T12:54:06.344Z,30.63
2023-02-16T12:56:43.384Z,28.92
2023-02-16T12:59:23.281Z,28.23
2023-02-16T13:01:57.453Z,27.75
2023-02-16T13:04:39.719Z,28.02
2023-02-16T13:07:18.329Z,24.77
2023-02-16T13:09:58.969Z,25.58
2023-02-16T13:12:33.837Z,26.63
2023-02-16T13:15:12.390Z,25.42
2023-02-16T13:17:47.671Z,22.30
2023-02-16T13:20:19.036Z,22.15
2023-02-16T13:23:36.153Z,21.70
2023-02-16T13:26:30.068Z,19.23
2023-02-16T13:29:33.070Z,20.13
2023-02-16T13:32:37.586Z,20.60
2023-02-16T13:35:39.473Z,18.70
2023-02-16T13:38:32.993Z,19.58
2023-02-16T13:41:44.521Z,17.20
2023-02-16T13:44:17.578Z,18.08
2023-02-16T13:46:53.055Z,18.10
2023-02-16T13:49:36.282Z,18.67
2023-02-16T13:52:07.806Z,17.25
2023-02-16T13:54:42.040Z,18.75
2023-02-16T13:57:18.615Z,18.85
2023-02-16T13:59:59.840Z,16.92
2023-02-16T14:02:55.814Z,20.40
2023-02-16T14:08:19.031Z,19.80
2023-02-16T14:11:13.933Z,20.95
2023-02-16T14:13:51.605Z,19.83
2023-02-16T14:16:33.168Z,21.30
2023-02-16T14:19:18.618Z,22.33
2023-02-16T14:21:50.364Z,23.05
2023-02-16T14:24:32.981Z,20.25
2023-02-16T14:27:05.424Z,22.27
2023-02-16T14:29:39.027Z,22.23
2023-02-16T14:32:24.465Z,21.98
2023-02-16T14:34:59.340Z,21.50
2023-02-16T14:37:36.827Z,20.48
2023-02-16T14:40:17.679Z,21.48
2023-02-16T14:42:55.243Z,21.58
2023-02-16T14:45:51.325Z,24.88
2023-02-16T14:48:42.495Z,22.75
2023-02-16T14:51:35.822Z,24.58
2023-02-16T14:54:51.583Z,23.27
2023-02-16T14:57:25.782Z,22.50
2023-02-16T15:00:03.179Z,22.73
2023-02-16T15:02:36.491Z,23.83
2023-02-16T15:07:54.998Z,25.08
2023-02-16T15:10:28.297Z,26.10
2023-02-16T15:12:58.778Z,28.02
2023-02-16T15:15:42.057Z,25.33
2023-02-16T15:18:16.686Z,25.40
2023-02-16T15:20:51.249Z,25.77
2023-02-16T15:23:22.911Z,25.75
2023-02-16T15:25:58.735Z,25.85
2023-02-16T15:28:31.113Z,25.77
2023-02-16T15:31:05.833Z,23.83
2023-02-16T15:33:40.073Z,24.52
2023-02-16T15:36:20.545Z,25.90
2023-02-16T15:38:58.217Z,22.95
2023-02-16T15:41:30.310Z,27.10
2023-02-16T15:44:04.079Z,26.75
2023-02-16T15:46:37.455Z,29.40
2023-02-16T15:51:46.521Z,29.38
2023-02-16T15:54:28.207Z,29.38
2023-02-16T15:56:59.843Z,31.17
2023-02-16T15:59:35.817Z,25.77
2023-02-16T16:02:16.446Z,27.50
2023-02-16T16:04:49.221Z,27.27
2023-02-16T16:07:26.755Z,25.02
2023-02-16T16:09:57.907Z,26.17
2023-02-16T16:12:28.057Z,23.52
2023-02-16T16:15:00.256Z,25.40
2023-02-16T16:17:33.338Z,25.98
2023-02-16T16:20:25.901Z,24.13
2023-02-16T16:22:58.617Z,26.23
2023-02-16T16:25:39.927Z,27.13
2023-02-16T16:30:45.515Z,29.90
2023-02-16T16:33:17.271Z,28.30
2023-02-16T16:35:51.659Z,27.73
2023-02-16T16:38:26.268Z,26.60
2023-02-16T16:40:58.344Z,26.65
2023-02-16T16:43:30.651Z,29.05
2023-02-16T16:46:14.862Z,29.30
2023-02-16T16:48:48.561Z,30.73
2023-02-16T16:51:21.439Z,31.40
2023-02-16T16:53:55.289Z,29.38
2023-02-16T16:56:25.260Z,30.10
2023-02-16T16:58:56.913Z,31.30
2023-02-16T17:01:28.768Z,29.95
2023-02-16T17:04:00.261Z,30.83
2023-02-16T17:06:29.941Z,30.73
2023-02-16T17:09:00.012Z,27.83
2023-02-16T17:11:33.683Z,30.70
2023-02-16T17:14:09.848Z,29.42
2023-02-16T17:16:42.373Z,29.08
2023-02-16T17:19:15.198Z,32.03
2023-02-16T17:21:45.631Z,32.22
2023-02-16T17:24:15.633Z,29.63
2023-02-16T17:26:45.679Z,29.35
2023-02-16T17:29:16.335Z,28.80
2023-02-16T17:31:46.069Z,28.40
2023-02-16T17:34:16.916Z,27.35
2023-02-16T17:36:47.270Z,28.70
2023-02-16T17:39:16.813Z,29.42
2023-02-16T17:41:46.511Z,83.25
2023-02-16T17:44:16.139Z,30.10
2023-02-16T17:46:46.954Z,25.23
2023-02-16T17:49:17.885Z,22.77
2023-02-16T17:51:47.705Z,24.92
2023-02-16T17:54:17.653Z,24.70
2023-02-16T17:56:48.338Z,22.52
2023-02-16T17:59:17.543Z,25.13
2023-02-16T18:01:47.227Z,23.63
2023-02-16T18:04:18.778Z,22.58
2023-02-16T18:06:48.807Z,21.73
2023-02-16T18:09:24.160Z,25.60
2023-02-16T18:11:53.550Z,23.20
2023-02-16T18:14:23.346Z,24.70
2023-02-16T18:16:53.758Z,26.25
2023-02-16T18:19:27.943Z,25.25
2023-02-16T18:21:57.616Z,24.55
2023-02-16T18:24:27.113Z,24.10
2023-02-16T18:26:57.322Z,24.08
2023-02-16T18:29:27.034Z,26.83
2023-02-16T18:31:57.576Z,25.02
2023-02-16T18:34:28.652Z,27.40
2023-02-16T18:36:58.454Z,26.42
2023-02-16T18:39:27.842Z,24.92
2023-02-16T18:41:57.239Z,28.00
2023-02-16T18:44:27.421Z,29.27
2023-02-16T18:46:57.450Z,29.13
2023-02-16T18:49:28.425Z,28.23
2023-02-16T18:51:58.643Z,35.13
2023-02-16T18:54:28.472Z,35.67
2023-02-16T18:56:58.363Z,30.75
2023-02-16T18:59:27.800Z,26.95
2023-02-16T19:01:58.327Z,28.70
2023-02-16T19:04:29.583Z,29.23
2023-02-16T19:06:59.449Z,27.10
2023-02-16T19:09:28.847Z,26.55
2023-02-16T19:11:58.260Z,26.27
2023-02-16T19:14:28.200Z,26.05
2023-02-16T19:16:58.228Z,25.45
2023-02-16T19:19:30.812Z,26.27
2023-02-16T19:22:00.787Z,24.92
2023-02-16T19:24:31.346Z,21.65
2023-02-16T19:27:01.032Z,24.45
2023-02-16T19:29:30.646Z,22.90
2023-02-16T19:32:00.498Z,21.60
2023-02-16T19:34:31.410Z,19.08
2023-02-16T19:37:01.319Z,16.15
2023-02-16T19:39:30.709Z,15.45
2023-02-16T19:42:01.048Z,14.63
2023-02-16T19:44:30.783Z,13.10
2023-02-16T19:47:00.733Z,12.45
2023-02-16T19:49:32.436Z,11.77
2023-02-16T19:52:04.282Z,12.23
2023-02-16T19:54:36.141Z,10.00
2023-02-16T19:57:06.773Z,10.27
2023-02-16T19:59:38.933Z,9.48
2023-02-16T20:02:10.706Z,8.63
2023-02-16T20:04:42.082Z,10.15
2023-02-16T20:07:12.485Z,9.57
2023-02-16T20:09:47.977Z,9.48
2023-02-16T20:12:21.090Z,10.50
2023-02-16T20:14:50.938Z,9.82
2023-02-16T20:17:20.901Z,10.30
2023-02-16T20:19:52.269Z,9.63
2023-02-16T20:22:22.103Z,9.88
2023-02-16T20:24:51.578Z,10.70
2023-02-16T20:27:21.422Z,11.10
2023-02-16T20:29:51.422Z,10.75
2023-02-16T20:32:20.711Z,10.93
2023-02-16T20:34:52.114Z,11.07
2023-02-16T20:37:22.724Z,10.50
2023-02-16T20:39:52.751Z,12.05
2023-02-16T20:42:22.455Z,10.98
2023-02-16T20:44:52.051Z,13.23
2023-02-16T20:47:21.664Z,14.07
2023-02-16T20:49:57.445Z,13.57
2023-02-16T20:52:26.683Z,13.75
2023-02-16T20:54:56.671Z,14.45
2023-02-16T20:57:27.485Z,28.27
2023-02-16T20:59:57.503Z,43.65
2023-02-16T21:02:27.840Z,15.77
2023-02-16T21:04:59.306Z,13.43
2023-02-16T21:07:28.998Z,13.93
2023-02-16T21:09:59.312Z,12.98
2023-02-16T21:12:28.868Z,13.35
2023-02-16T21:14:58.526Z,13.23
2023-02-16T21:17:28.693Z,12.77
2023-02-16T21:20:01.998Z,12.95
2023-02-16T21:22:31.606Z,13.45
2023-02-16T21:25:00.949Z,13.98
2023-02-16T21:27:30.147Z,13.77
2023-02-16T21:29:59.957Z,14.30
2023-02-16T21:32:29.533Z,15.05
2023-02-16T21:34:59.082Z,14.75
2023-02-16T21:37:29.690Z,14.35
2023-02-16T21:40:16.362Z,14.80
2023-02-16T21:42:46.149Z,13.48
2023-02-16T21:45:17.059Z,14.82
2023-02-16T21:48:05.575Z,15.75
2023-02-16T21:50:38.004Z,14.68
2023-02-16T21:53:10.531Z,15.33
2023-02-16T21:56:00.273Z,14.55
2023-02-16T21:58:33.181Z,15.70
2023-02-16T22:01:03.057Z,14.40
2023-02-16T22:03:32.446Z,15.27
2023-02-16T22:06:03.884Z,14.38
2023-02-16T22:08:38.171Z,14.10
2023-02-16T22:11:09.257Z,13.63
2023-02-16T22:13:39.440Z,13.38
2023-02-16T22:16:13.625Z,14.50
2023-02-16T22:18:43.936Z,13.90
2023-02-16T22:21:14.203Z,13.57
2023-02-16T22:23:45.366Z,13.15
2023-02-16T22:26:26.818Z,12.27
2023-02-16T22:28:57.540Z,12.93
2023-02-16T22:31:28.809Z,11.63
2023-02-16T22:33:59.519Z,10.95
2023-02-16T22:36:29.442Z,11.85
2023-02-16T22:39:02.908Z,11.35
2023-02-16T22:41:34.214Z,10.82
2023-02-16T22:44:04.237Z,11.10
2023-02-16T22:46:34.028Z,10.55
2023-02-16T22:49:03.774Z,11.75
2023-02-16T22:51:33.085Z,9.93
2023-02-16T22:54:07.430Z,11.38
2023-02-16T22:56:37.160Z,10.98
2023-02-16T22:59:06.955Z,11.57
2023-02-16T23:01:36.975Z,10.18
2023-02-16T23:04:07.292Z,12.13
2023-02-16T23:06:38.179Z,12.85
2023-02-16T23:09:13.561Z,13.20
2023-02-16T23:11:43.671Z,14.32
2023-02-16T23:14:17.600Z,13.65
2023-02-16T23:16:51.052Z,15.57
2023-02-16T23:19:22.368Z,15.57
2023-02-16T23:21:52.389Z,15.25
2023-02-16T23:24:25.175Z,14.85
2023-02-16T23:26:55.444Z,16.23
2023-02-16T23:29:25.148Z,17.30
2023-02-16T23:31:54.897Z,18.10
2023-02-16T23:34:24.301Z,18.50
2023-02-16T23:36:56.291Z,18.20
2023-02-16T23:39:26.596Z,18.88
2023-02-16T23:41:56.894Z,20.13
2023-02-16T23:44:26.430Z,22.40
2023-02-16T23:46:56.669Z,21.98
2023-02-16T23:49:26.103Z,18.52
2023-02-16T23:51:55.884Z,17.00
2023-02-16T23:54:26.499Z,18.63
2023-02-16T23:56:56.301Z,17.80
2023-02-16T23:59:27.925Z,18.25
